CheckWX is a tool to help pilots better visualize weather data.  It is not intended as a substitute for an official pre-flight weather briefing.

13:19:06 UTC

KEFD METAR
Ellington Airport
Houston, Texas, USA
Current

29 mins ago

KEFD 071250Z 16008KT 8SM FEW020 BKN250 28/26 A2995
Observed
Jul-7 @ 12:50 UTC
Wind
  • 160° at 8 KTS
Visibility
8 SM
Flight Rules
VFR
Cloud Levels
  • Few at 2,000' AGL
  • Broken at 25,000' AGL
Temperature
28°C / 82°F
Dewpoint
26°C / 79°F
Humidity
89%
Altimeter
29.95" Hg
Pressure
1014.22 hPa
Previous

1 hour ago

KEFD 071150Z 16004KT 10SM FEW020 BKN250 27/26 A2995
Observed
Jul-7 @ 11:50 UTC
Wind
  • 160° at 4 KTS
Visibility
10 SM
Flight Rules
VFR
Cloud Levels
  • Few at 2,000' AGL
  • Broken at 25,000' AGL
Temperature
27°C / 81°F
Dewpoint
26°C / 79°F
Humidity
94%
Altimeter
29.95" Hg
Pressure
1014.22 hPa
Previous

2 hours ago

KEFD 071050Z 14005KT 10SM FEW013 SCT180 BKN250 27/26 A2994
Observed
Jul-7 @ 10:50 UTC
Wind
  • 140° at 5 KTS
Visibility
10 SM
Flight Rules
VFR
Cloud Levels
  • Few at 1,300' AGL
  • Scattered at 18,000' AGL
  • Broken at 25,000' AGL
Temperature
27°C / 81°F
Dewpoint
26°C / 79°F
Humidity
94%
Altimeter
29.94" Hg
Pressure
1013.92 hPa